Saint-Denis, Réunion

11:52 RET le 23 octobre 2014 (GMT +0400)
Bras Madeleine | Change Station
CLOSE
Current Station
Stations météorologiques personnelles
Location: Saint Benoit, SAINT BENOIT
Altitude: 299 ft
Stations météo à proximité

Alt. 299 ft 21.05 °S, 55.70 °E | Updated 45 seconds ago

Partly Cloudy
Partiellement nuageux
82.1 ° F
Paraît 88 ° F
N
2.0
Vent Variable Vent de Est
Gusts 2.0 mph

Aujourd'hui
Haut(e) -- | Bas -- ° F
--% Risque de précip.
Hier
Haut(e) -- | Bas -- ° F
Precip. -- pouce
5:41 AM 6:23 PM
Lune descendante, 0% visible
Pression 30.04 pouce
Visibilité 6.2 Miles terrestres
Nuages Peu 5000 ft
indice de chaleur 88 ° F
Point de rosée 74 ° F
Humidité 76%
Précipitations 0.18 pouce
Profondeur de la couche neigeuse Non disponible.
UV 15 sur 12
Pollen Non disponible.
Qualité de l'air Non disponible.
Flu Activity Non disponible.
METAR FMEP 230730Z AUTO 20006KT 170V240 9999 FEW050/// 28/20 Q1017

More Conditions Fewer Conditions

Pression 30.04 pouce
Visibilité 6.2 Miles terrestres
Nuages Peu 5000 ft
indice de chaleur 88 ° F
Point de rosée 74 ° F
Humidité 76%
Précipitations 0.18 pouce
Profondeur de la couche neigeuse Non disponible.
UV 15 sur 12
Pollen Non disponible.
Qualité de l'air Non disponible.
Flu Activity Non disponible.
METAR FMEP 230730Z AUTO 20006KT 170V240 9999 FEW050/// 28/20 Q1017

More Conditions Fewer Conditions

10-Day Weather Forecast

Almanac

Astronomie

Oct. 23, 2014 Lever Coucher
Temps réel 05:41 RET 18:23 RET
Crépuscule civil 05:18 RET 18:46 RET
Crépuscule nautique 04:51 RET 19:13 RET
Crépuscule astronomique 04:24 RET 19:40 RET
Lune 05:13 RET 18:02 RET
Durée de lumière visible 13h 28m
Longueur du jour
12h 42m
Tomorrow will be 1m 8s longer.
Lune descendante, 0% of the Moon is Illuminated
Aujourd'hui
Lune descendante
Oct 23
Nouveau
Oct 30
Premier quartier
Nov 6
Pleine lune
Nov 14
Dernier quartier

Les extrêmes de température d’hier

Country Highs Country Lows

Community

WunderPhotos

Upload Photos

1,764,194 Photos téléchargées !

Nearby

Qualité de l'air

Not available.

Épaisseur de neige

Not available.

Activité sismique

Ville Distance Mag. Time & Date
No recent earthquake activity has been reported nearby.
Minimum magnitude displayed is 2.5.

Températures des eaux côtières

Lieu Température
Aucun rapport de station

Stations météo à proximité